createdAt,value
2023-05-21T00:00:24.605Z,9.50
2023-05-21T00:02:52.777Z,10.13
2023-05-21T00:05:21.847Z,8.97
2023-05-21T00:07:53.367Z,6.97
2023-05-21T00:10:22.909Z,8.67
2023-05-21T00:12:50.920Z,8.57
2023-05-21T00:15:18.939Z,8.80
2023-05-21T00:17:47.156Z,8.07
2023-05-21T00:20:16.290Z,7.93
2023-05-21T00:22:44.314Z,7.73
2023-05-21T00:25:13.475Z,8.90
2023-05-21T00:27:42.834Z,10.97
2023-05-21T00:30:11.213Z,10.40
2023-05-21T00:32:39.464Z,8.83
2023-05-21T00:35:08.785Z,6.67
2023-05-21T00:37:36.780Z,7.00
2023-05-21T00:40:07.537Z,8.17
2023-05-21T00:42:40.726Z,7.23
2023-05-21T00:45:10.977Z,9.90
2023-05-21T00:47:39.137Z,6.60
2023-05-21T00:50:08.508Z,6.90
2023-05-21T00:52:41.980Z,8.30
2023-05-21T00:55:10.993Z,10.33
2023-05-21T00:57:39.646Z,13.37
2023-05-21T01:00:10.830Z,12.83
2023-05-21T01:02:39.579Z,8.37
2023-05-21T01:05:08.455Z,6.57
2023-05-21T01:07:39.123Z,6.67
2023-05-21T01:10:09.473Z,9.43
2023-05-21T01:12:39.301Z,6.90
2023-05-21T01:15:08.649Z,6.80
2023-05-21T01:17:39.810Z,6.77
2023-05-21T01:20:11.253Z,7.07
2023-05-21T01:22:44.550Z,7.17
2023-05-21T01:25:15.047Z,9.03
2023-05-21T01:27:43.050Z,7.27
2023-05-21T01:30:12.109Z,6.50
2023-05-21T01:32:46.244Z,7.63
2023-05-21T01:35:20.074Z,7.00
2023-05-21T01:37:53.270Z,7.23
2023-05-21T01:40:27.247Z,6.10
2023-05-21T01:42:55.258Z,6.57
2023-05-21T01:45:25.102Z,7.93
2023-05-21T01:47:56.672Z,7.00
2023-05-21T01:50:25.870Z,7.03
2023-05-21T01:52:55.016Z,6.97
2023-05-21T01:55:25.417Z,6.93
2023-05-21T01:57:53.903Z,6.93
2023-05-21T02:00:22.628Z,7.50
2023-05-21T02:02:51.100Z,7.33
2023-05-21T02:05:19.684Z,9.23
2023-05-21T02:07:50.998Z,8.60
2023-05-21T02:10:19.333Z,7.73
2023-05-21T02:12:48.701Z,8.97
2023-05-21T02:15:18.150Z,7.13
2023-05-21T02:17:46.520Z,8.50
2023-05-21T02:20:14.792Z,7.23
2023-05-21T02:22:45.479Z,8.50
2023-05-21T02:28:09.082Z,7.73
2023-05-21T02:30:37.516Z,7.17
2023-05-21T02:33:05.592Z,7.20
2023-05-21T02:35:33.689Z,7.17
2023-05-21T02:38:09.055Z,8.30
2023-05-21T02:40:37.050Z,7.10
2023-05-21T02:43:06.576Z,9.30
2023-05-21T02:45:36.051Z,6.80
2023-05-21T02:48:04.496Z,8.27
2023-05-21T02:50:32.539Z,7.93
2023-05-21T02:53:00.873Z,7.00
2023-05-21T02:55:28.815Z,7.90
2023-05-21T02:57:56.966Z,8.20
2023-05-21T03:00:25.021Z,6.97
2023-05-21T03:02:54.573Z,6.90
2023-05-21T03:05:23.008Z,8.40
2023-05-21T03:07:51.155Z,8.87
2023-05-21T03:10:19.321Z,9.00
2023-05-21T03:12:47.418Z,6.80
2023-05-21T03:15:15.696Z,6.10
2023-05-21T03:17:44.457Z,7.27
2023-05-21T03:20:16.718Z,7.33
2023-05-21T03:22:44.829Z,10.07
2023-05-21T03:25:13.282Z,8.00
2023-05-21T03:27:41.395Z,10.27
2023-05-21T03:30:10.563Z,6.93
2023-05-21T03:32:38.724Z,8.90
2023-05-21T03:35:07.674Z,6.40
2023-05-21T03:37:37.132Z,7.77
2023-05-21T03:40:06.308Z,7.77
2023-05-21T03:42:34.221Z,8.00
2023-05-21T03:45:02.323Z,9.67
2023-05-21T03:47:30.497Z,6.37
2023-05-21T03:49:58.471Z,7.43
2023-05-21T03:52:26.715Z,7.40
2023-05-21T03:54:55.995Z,8.77
2023-05-21T03:57:23.938Z,8.17
2023-05-21T03:59:52.178Z,8.40
2023-05-21T04:02:20.231Z,7.57
2023-05-21T04:04:48.406Z,7.40
2023-05-21T04:07:19.163Z,8.73
2023-05-21T04:09:47.233Z,7.10
2023-05-21T04:12:18.327Z,8.70
2023-05-21T04:14:46.326Z,8.10
2023-05-21T04:17:14.261Z,8.10
2023-05-21T04:19:42.505Z,7.53
2023-05-21T04:22:12.291Z,7.33
2023-05-21T04:24:40.228Z,7.30
2023-05-21T04:27:10.086Z,8.07
2023-05-21T04:29:42.650Z,8.97
2023-05-21T04:32:11.692Z,8.87
2023-05-21T04:34:39.713Z,6.77
2023-05-21T04:37:09.349Z,11.90
2023-05-21T04:39:37.541Z,8.10
2023-05-21T04:42:05.725Z,7.63
2023-05-21T04:44:33.715Z,8.13
2023-05-21T04:47:03.266Z,8.03
2023-05-21T04:49:31.289Z,9.20
2023-05-21T04:51:59.766Z,10.70
2023-05-21T04:54:28.011Z,9.20
2023-05-21T04:56:56.173Z,6.83
2023-05-21T04:59:24.124Z,10.07
2023-05-21T05:01:52.801Z,9.70
2023-05-21T05:04:22.124Z,8.87
2023-05-21T05:06:50.458Z,12.37
2023-05-21T05:09:18.450Z,7.57
2023-05-21T05:11:46.398Z,7.30
2023-05-21T05:14:14.537Z,7.57
2023-05-21T05:16:42.924Z,8.00
2023-05-21T05:19:11.328Z,8.20
2023-05-21T05:21:40.711Z,8.27
2023-05-21T05:24:08.645Z,9.10
2023-05-21T05:26:36.724Z,8.77
2023-05-21T05:29:04.698Z,6.97
2023-05-21T05:31:32.854Z,8.50
2023-05-21T05:34:01.285Z,9.17
2023-05-21T05:36:29.345Z,7.60
2023-05-21T05:38:58.779Z,9.10
2023-05-21T05:41:26.921Z,10.20
2023-05-21T05:43:55.150Z,8.87
2023-05-21T05:46:23.281Z,10.67
2023-05-21T05:48:51.377Z,8.67
2023-05-21T05:51:19.418Z,8.47
2023-05-21T05:53:47.469Z,6.80
2023-05-21T05:56:17.738Z,8.57
2023-05-21T05:58:45.819Z,9.17
2023-05-21T06:01:14.580Z,6.87
2023-05-21T06:03:42.724Z,7.57
2023-05-21T06:06:11.652Z,7.30
2023-05-21T06:08:40.558Z,5.97
2023-05-21T06:11:08.683Z,7.43
2023-05-21T06:13:38.266Z,6.37
2023-05-21T06:16:07.527Z,10.13
2023-05-21T06:18:35.668Z,7.93
2023-05-21T06:21:03.581Z,6.70
2023-05-21T06:23:32.658Z,7.00
2023-05-21T06:26:00.724Z,6.80
2023-05-21T06:28:28.920Z,6.30
2023-05-21T06:30:58.273Z,7.80
2023-05-21T06:33:27.308Z,8.30
2023-05-21T06:35:55.264Z,7.90
2023-05-21T06:38:23.227Z,9.97
2023-05-21T06:40:51.911Z,6.93
2023-05-21T06:43:20.019Z,5.97
2023-05-21T06:45:48.096Z,7.90
2023-05-21T06:48:17.964Z,6.37
2023-05-21T06:50:46.093Z,8.17
2023-05-21T06:53:16.280Z,7.07
2023-05-21T06:55:45.471Z,6.80
2023-05-21T06:58:13.639Z,6.00
2023-05-21T07:00:41.625Z,7.60
2023-05-21T07:03:09.929Z,7.30
2023-05-21T07:05:39.832Z,7.03
2023-05-21T07:08:08.652Z,7.50
2023-05-21T07:10:38.198Z,6.70
2023-05-21T07:13:06.183Z,6.23
2023-05-21T07:15:34.576Z,7.13
2023-05-21T07:18:02.706Z,7.27
2023-05-21T07:20:31.023Z,8.07
2023-05-21T07:23:00.396Z,6.20
2023-05-21T07:25:28.388Z,7.33
2023-05-21T07:27:56.351Z,5.47
2023-05-21T07:30:24.266Z,5.17
2023-05-21T07:32:52.534Z,9.00
2023-05-21T07:35:22.242Z,5.83
2023-05-21T07:37:50.206Z,6.87
2023-05-21T07:40:19.727Z,8.53
2023-05-21T07:42:47.681Z,5.83
2023-05-21T07:45:15.644Z,5.03
2023-05-21T07:47:43.981Z,7.30
2023-05-21T07:50:13.308Z,5.63
2023-05-21T07:52:41.483Z,6.10
2023-05-21T07:55:10.487Z,6.80
2023-05-21T07:57:40.013Z,4.80
2023-05-21T08:00:10.313Z,4.90
2023-05-21T08:02:38.638Z,6.70
2023-05-21T08:05:07.422Z,5.40
2023-05-21T08:07:35.666Z,6.13
2023-05-21T08:10:03.966Z,7.23
2023-05-21T08:12:32.110Z,5.30
2023-05-21T08:15:01.505Z,9.63
2023-05-21T08:17:29.574Z,6.63
2023-05-21T08:19:57.725Z,7.23
2023-05-21T08:22:25.879Z,6.17
2023-05-21T08:24:53.826Z,7.47
2023-05-21T08:27:22.219Z,5.03
2023-05-21T08:29:50.238Z,6.80
2023-05-21T08:32:19.678Z,4.70
2023-05-21T08:34:47.771Z,5.60
2023-05-21T08:37:15.731Z,7.37
2023-05-21T08:39:43.890Z,6.30
2023-05-21T08:42:32.786Z,5.80
2023-05-21T08:45:07.394Z,6.30
2023-05-21T08:47:37.889Z,5.47
2023-05-21T08:50:06.705Z,7.47
2023-05-21T08:52:34.920Z,6.70
2023-05-21T08:55:04.496Z,6.40
2023-05-21T08:57:33.071Z,5.63
2023-05-21T09:00:02.009Z,6.50
2023-05-21T09:02:34.329Z,6.40
2023-05-21T09:05:05.710Z,8.17
2023-05-21T09:07:44.408Z,7.63
2023-05-21T09:10:14.765Z,7.20
2023-05-21T09:12:42.911Z,5.87
2023-05-21T09:15:11.875Z,6.13
2023-05-21T09:17:39.884Z,7.50
2023-05-21T09:20:12.618Z,5.30
2023-05-21T09:22:44.264Z,7.30
2023-05-21T09:25:14.565Z,5.23
2023-05-21T09:27:42.801Z,9.30
2023-05-21T09:30:12.475Z,8.70
2023-05-21T09:32:42.302Z,6.73
2023-05-21T09:35:13.956Z,5.57
2023-05-21T09:37:43.879Z,8.07
2023-05-21T09:40:13.847Z,5.23
2023-05-21T09:42:42.312Z,8.07
2023-05-21T09:45:11.281Z,5.03
2023-05-21T09:47:44.468Z,6.17
2023-05-21T09:50:14.507Z,8.07
2023-05-21T09:52:42.473Z,4.00
2023-05-21T09:55:13.425Z,5.77
2023-05-21T09:57:47.167Z,5.00
2023-05-21T10:00:20.325Z,5.90
2023-05-21T10:02:50.077Z,6.37
2023-05-21T10:05:19.577Z,5.43
2023-05-21T10:07:52.081Z,5.70
2023-05-21T10:10:22.817Z,6.87
2023-05-21T10:12:59.819Z,6.30
2023-05-21T10:15:31.593Z,4.37
2023-05-21T10:18:00.876Z,7.80
2023-05-21T10:20:30.940Z,6.00
2023-05-21T10:23:00.849Z,4.70
2023-05-21T10:25:29.865Z,3.23
2023-05-21T10:27:58.940Z,5.63
2023-05-21T10:30:27.101Z,4.00
2023-05-21T10:32:58.027Z,3.40
2023-05-21T10:35:26.794Z,4.60
2023-05-21T10:37:58.738Z,3.93
2023-05-21T10:40:26.706Z,4.30
2023-05-21T10:43:14.568Z,3.43
2023-05-21T10:45:58.117Z,5.47
2023-05-21T10:48:40.685Z,4.30
2023-05-21T10:51:20.367Z,3.23
2023-05-21T10:54:26.816Z,4.50
2023-05-21T10:57:03.206Z,5.73
2023-05-21T10:59:41.054Z,7.00
2023-05-21T11:02:10.816Z,5.50
2023-05-21T11:04:40.112Z,4.63
2023-05-21T11:07:08.511Z,6.83
2023-05-21T11:09:39.061Z,4.80
2023-05-21T11:12:08.108Z,3.93
2023-05-21T11:14:39.268Z,5.53
2023-05-21T11:17:13.604Z,5.30
2023-05-21T11:19:43.452Z,3.90
2023-05-21T11:22:22.575Z,5.50
2023-05-21T11:24:52.273Z,6.23
2023-05-21T11:27:35.003Z,6.07
2023-05-21T11:30:06.497Z,5.30
2023-05-21T11:32:37.690Z,4.30
2023-05-21T11:35:06.556Z,4.90
2023-05-21T11:37:35.943Z,4.53
2023-05-21T11:40:28.397Z,7.90
2023-05-21T11:42:57.521Z,4.80
2023-05-21T11:45:30.851Z,4.30
2023-05-21T11:47:59.095Z,4.87
2023-05-21T11:50:27.392Z,4.83
2023-05-21T11:52:56.126Z,5.47
2023-05-21T11:55:26.185Z,6.17
2023-05-21T11:57:55.371Z,5.43
2023-05-21T12:00:23.635Z,6.50
2023-05-21T12:02:53.466Z,5.27
2023-05-21T12:05:22.653Z,4.67
2023-05-21T12:07:51.172Z,5.30
2023-05-21T12:10:22.987Z,5.03
2023-05-21T12:12:56.255Z,6.83
2023-05-21T12:15:25.805Z,5.43
2023-05-21T12:17:54.294Z,3.73
2023-05-21T12:20:23.369Z,5.30
2023-05-21T12:22:51.342Z,5.70
2023-05-21T12:25:21.001Z,4.97
2023-05-21T12:27:52.426Z,5.07
2023-05-21T12:30:22.400Z,4.43
2023-05-21T12:32:50.616Z,5.33
2023-05-21T12:35:25.346Z,6.07
2023-05-21T12:37:53.684Z,6.37
2023-05-21T12:40:22.268Z,4.77
2023-05-21T12:42:52.122Z,4.47
2023-05-21T12:45:22.708Z,5.63
2023-05-21T12:47:56.308Z,5.10
2023-05-21T12:50:24.740Z,6.13
2023-05-21T12:52:56.107Z,5.33
2023-05-21T12:55:26.083Z,5.83
2023-05-21T12:58:04.606Z,5.43
2023-05-21T13:00:34.708Z,5.60
2023-05-21T13:03:06.206Z,5.43
2023-05-21T13:05:34.723Z,4.50
2023-05-21T13:08:02.958Z,8.27
2023-05-21T13:10:30.886Z,6.00
2023-05-21T13:12:58.912Z,8.73
2023-05-21T13:15:27.008Z,6.97
2023-05-21T13:17:57.190Z,6.57
2023-05-21T13:20:27.485Z,6.37
2023-05-21T13:22:55.910Z,4.90
2023-05-21T13:25:28.807Z,4.90
2023-05-21T13:27:57.624Z,5.50
2023-05-21T13:30:25.679Z,8.10
2023-05-21T13:32:53.974Z,3.87
2023-05-21T13:35:23.612Z,5.27
2023-05-21T13:37:51.560Z,5.33
2023-05-21T13:40:19.705Z,5.77
2023-05-21T13:42:49.147Z,4.77
2023-05-21T13:45:19.097Z,5.53
2023-05-21T13:47:48.547Z,8.83
2023-05-21T13:50:17.675Z,4.93
2023-05-21T13:52:47.427Z,6.87
2023-05-21T13:55:16.704Z,7.57
2023-05-21T13:57:45.094Z,5.00
2023-05-21T14:00:15.599Z,6.53
2023-05-21T14:02:44.584Z,4.60
2023-05-21T14:05:13.490Z,7.67
2023-05-21T14:07:41.931Z,4.40
2023-05-21T14:10:12.200Z,6.10
2023-05-21T14:12:41.002Z,4.50
2023-05-21T14:15:10.056Z,5.83
2023-05-21T14:17:40.318Z,5.00
2023-05-21T14:20:10.124Z,8.80
2023-05-21T14:22:39.044Z,6.13
2023-05-21T14:25:07.991Z,5.13
2023-05-21T14:27:38.809Z,5.90
2023-05-21T14:30:08.018Z,6.03
2023-05-21T14:32:36.175Z,6.03
2023-05-21T14:35:05.035Z,6.20
2023-05-21T14:37:32.998Z,6.20
2023-05-21T14:40:01.203Z,4.50
2023-05-21T14:42:29.734Z,5.37
2023-05-21T14:45:10.882Z,5.80
2023-05-21T14:47:47.622Z,5.03
2023-05-21T14:50:17.445Z,6.23
2023-05-21T14:52:45.644Z,4.65
2023-05-21T14:55:16.417Z,4.35
2023-05-21T14:57:44.461Z,4.77
2023-05-21T15:00:15.261Z,6.57
2023-05-21T15:02:43.508Z,7.20
2023-05-21T15:05:11.565Z,5.43
2023-05-21T15:07:39.665Z,5.40
2023-05-21T15:10:09.230Z,6.80
2023-05-21T15:12:37.257Z,4.87
2023-05-21T15:15:06.119Z,5.10
2023-05-21T15:17:35.831Z,5.10
2023-05-21T15:20:04.608Z,6.40
2023-05-21T15:22:32.560Z,6.90
2023-05-21T15:25:00.972Z,7.43
2023-05-21T15:27:29.162Z,6.47
2023-05-21T15:29:57.209Z,5.20
2023-05-21T15:32:25.434Z,5.50
2023-05-21T15:34:55.039Z,7.13
2023-05-21T15:37:23.071Z,4.03
2023-05-21T15:39:51.014Z,8.67
2023-05-21T15:42:19.167Z,7.23
2023-05-21T15:44:47.117Z,4.93
2023-05-21T15:47:15.919Z,6.00
2023-05-21T15:49:44.552Z,4.60
2023-05-21T15:52:14.136Z,4.43
2023-05-21T15:54:42.119Z,4.97
2023-05-21T15:57:10.075Z,5.93
2023-05-21T15:59:38.162Z,5.43
2023-05-21T16:02:06.683Z,4.57
2023-05-21T16:04:34.797Z,4.30
2023-05-21T16:07:02.783Z,5.47
2023-05-21T16:09:32.186Z,5.30
2023-05-21T16:12:00.176Z,5.03
2023-05-21T16:14:29.504Z,4.10
2023-05-21T16:16:57.629Z,4.73
2023-05-21T16:19:25.888Z,5.17
2023-05-21T16:22:01.822Z,5.55
2023-05-21T16:24:40.861Z,5.17
2023-05-21T16:27:09.354Z,5.53
2023-05-21T16:29:40.725Z,4.70
2023-05-21T16:32:09.746Z,7.50
2023-05-21T16:34:37.878Z,4.87
2023-05-21T16:37:08.509Z,9.10
2023-05-21T16:39:38.195Z,4.47
2023-05-21T16:42:06.705Z,11.47
2023-05-21T16:44:34.878Z,4.10
2023-05-21T16:47:04.345Z,4.17
2023-05-21T16:49:33.195Z,6.70
2023-05-21T16:52:02.060Z,6.47
2023-05-21T16:54:30.142Z,5.30
2023-05-21T16:56:59.554Z,3.90
2023-05-21T16:59:27.587Z,4.97
2023-05-21T17:01:55.600Z,4.50
2023-05-21T17:04:23.607Z,4.50
2023-05-21T17:06:51.625Z,6.50
2023-05-21T17:09:19.728Z,6.13
2023-05-21T17:11:47.715Z,5.47
2023-05-21T17:14:32.577Z,5.30
2023-05-21T17:17:01.561Z,5.20
2023-05-21T17:19:29.773Z,8.27
2023-05-21T17:21:57.947Z,4.77
2023-05-21T17:24:26.043Z,4.10
2023-05-21T17:26:54.647Z,5.20
2023-05-21T17:29:24.006Z,3.40
2023-05-21T17:31:52.136Z,5.68
2023-05-21T17:34:20.547Z,5.90
2023-05-21T17:36:48.543Z,5.53
2023-05-21T17:39:16.689Z,3.80
2023-05-21T17:41:47.466Z,5.93
2023-05-21T17:44:16.830Z,5.57
2023-05-21T17:46:46.843Z,5.17
2023-05-21T17:49:14.894Z,6.40
2023-05-21T17:51:43.790Z,7.27
2023-05-21T17:54:11.871Z,5.63
2023-05-21T17:56:39.847Z,7.70
2023-05-21T17:59:08.346Z,9.87
2023-05-21T18:01:37.234Z,6.70
2023-05-21T18:04:09.758Z,6.20
2023-05-21T18:06:37.786Z,6.67
2023-05-21T18:09:06.926Z,20.47
2023-05-21T18:11:34.961Z,8.13
2023-05-21T18:14:03.825Z,9.03
2023-05-21T18:16:31.897Z,7.80
2023-05-21T18:19:01.980Z,8.30
2023-05-21T18:21:31.422Z,8.30
2023-05-21T18:23:59.572Z,7.47
2023-05-21T18:26:27.533Z,7.37
2023-05-21T18:28:55.483Z,8.97
2023-05-21T18:31:23.732Z,7.70
2023-05-21T18:33:52.008Z,9.63
2023-05-21T18:36:20.166Z,8.20
2023-05-21T18:38:49.649Z,5.53
2023-05-21T18:41:17.644Z,8.13
2023-05-21T18:43:46.277Z,8.80
2023-05-21T18:46:14.243Z,11.17
2023-05-21T18:48:42.214Z,6.97
2023-05-21T18:51:10.309Z,8.63
2023-05-21T18:53:39.240Z,7.53
2023-05-21T18:56:10.178Z,10.60
2023-05-21T18:58:38.584Z,8.40
2023-05-21T19:01:07.500Z,7.90
2023-05-21T19:03:35.600Z,7.57
2023-05-21T19:06:03.675Z,9.27
2023-05-21T19:08:31.809Z,10.10
2023-05-21T19:10:59.899Z,7.20
2023-05-21T19:13:29.509Z,8.43
2023-05-21T19:15:58.745Z,8.00
2023-05-21T19:18:30.274Z,8.67
2023-05-21T19:21:00.252Z,9.63
2023-05-21T19:23:28.562Z,7.80
2023-05-21T19:25:57.430Z,10.90
2023-05-21T19:28:25.537Z,7.77
2023-05-21T19:30:54.847Z,9.40
2023-05-21T19:33:23.204Z,9.13
2023-05-21T19:35:51.883Z,8.13
2023-05-21T19:38:19.958Z,8.57
2023-05-21T19:40:48.073Z,10.50
2023-05-21T19:43:16.279Z,6.97
2023-05-21T19:45:44.610Z,10.23
2023-05-21T19:48:14.031Z,11.10
2023-05-21T19:50:42.293Z,8.90
2023-05-21T19:53:10.360Z,10.43
2023-05-21T19:55:49.437Z,9.93
2023-05-21T19:58:33.702Z,10.80
2023-05-21T20:01:09.462Z,8.70
2023-05-21T20:03:50.009Z,9.93
2023-05-21T20:06:27.552Z,9.70
2023-05-21T20:09:09.527Z,9.97
2023-05-21T20:11:42.290Z,8.63
2023-05-21T20:14:16.242Z,9.70
2023-05-21T20:16:55.483Z,8.80
2023-05-21T20:19:40.266Z,9.23
2023-05-21T20:22:15.467Z,9.53
2023-05-21T20:24:55.113Z,8.70
2023-05-21T20:27:40.600Z,10.60
2023-05-21T20:30:25.130Z,10.53
2023-05-21T20:32:53.120Z,10.13
2023-05-21T20:35:22.640Z,9.07
2023-05-21T20:37:52.516Z,8.50
2023-05-21T20:40:20.541Z,7.93
2023-05-21T20:42:50.749Z,9.70
2023-05-21T20:45:18.846Z,10.97
2023-05-21T20:47:48.135Z,9.80
2023-05-21T20:50:17.531Z,9.30
2023-05-21T20:52:47.546Z,13.83
2023-05-21T20:55:15.624Z,10.13
2023-05-21T20:57:43.640Z,10.20
2023-05-21T21:00:12.820Z,8.30
2023-05-21T21:02:41.023Z,9.90
2023-05-21T21:05:10.420Z,9.40
2023-05-21T21:07:39.231Z,9.10
2023-05-21T21:10:09.753Z,10.50
2023-05-21T21:12:37.743Z,9.23
2023-05-21T21:15:06.587Z,9.43
2023-05-21T21:17:34.598Z,7.90
2023-05-21T21:20:02.653Z,11.00
2023-05-21T21:22:30.775Z,7.70
2023-05-21T21:24:58.882Z,9.87
2023-05-21T21:27:28.367Z,9.77
2023-05-21T21:29:56.360Z,7.53
2023-05-21T21:32:24.453Z,12.10
2023-05-21T21:34:52.437Z,10.57
2023-05-21T21:37:20.360Z,9.27
2023-05-21T21:39:48.577Z,9.10
2023-05-21T21:42:16.692Z,11.50
2023-05-21T21:44:46.014Z,8.73
2023-05-21T21:47:14.286Z,13.30
2023-05-21T21:49:42.555Z,10.20
2023-05-21T21:52:10.828Z,10.93
2023-05-21T21:54:38.807Z,10.07
2023-05-21T21:57:07.145Z,11.30
2023-05-21T21:59:35.640Z,10.87
2023-05-21T22:02:05.165Z,10.40
2023-05-21T22:04:33.383Z,12.40
2023-05-21T22:07:01.684Z,10.37
2023-05-21T22:09:29.754Z,11.90
2023-05-21T22:11:58.693Z,9.63
2023-05-21T22:14:26.637Z,11.60
2023-05-21T22:16:55.810Z,11.40
2023-05-21T22:19:25.199Z,12.05
2023-05-21T22:21:54.128Z,11.43
2023-05-21T22:24:32.063Z,11.00
2023-05-21T22:27:01.485Z,10.83
2023-05-21T22:29:29.507Z,9.90
2023-05-21T22:31:57.576Z,11.80
2023-05-21T22:34:26.913Z,12.07
2023-05-21T22:36:54.937Z,12.87
2023-05-21T22:39:23.099Z,12.00
2023-05-21T22:41:51.152Z,10.63
2023-05-21T22:44:19.250Z,10.37
2023-05-21T22:46:47.798Z,10.65
2023-05-21T22:49:16.380Z,13.53
2023-05-21T22:51:46.379Z,11.80
2023-05-21T22:54:14.347Z,11.33
2023-05-21T22:56:42.315Z,13.37
2023-05-21T22:59:10.461Z,9.50
2023-05-21T23:01:38.774Z,13.20
2023-05-21T23:04:07.100Z,12.80
2023-05-21T23:06:35.062Z,10.40
2023-05-21T23:09:04.493Z,12.07
2023-05-21T23:11:32.789Z,10.83
2023-05-21T23:14:01.032Z,14.17
2023-05-21T23:16:30.796Z,13.30
2023-05-21T23:18:59.149Z,11.33
2023-05-21T23:21:27.278Z,10.73
2023-05-21T23:23:55.456Z,8.87
2023-05-21T23:26:25.684Z,12.70
2023-05-21T23:28:53.653Z,11.00
2023-05-21T23:31:21.858Z,11.87
2023-05-21T23:33:51.274Z,12.27
2023-05-21T23:36:19.463Z,12.53
2023-05-21T23:38:47.801Z,13.00
2023-05-21T23:41:15.903Z,11.60
2023-05-21T23:43:45.691Z,11.97
2023-05-21T23:46:13.774Z,10.30
2023-05-21T23:48:41.979Z,12.73
2023-05-21T23:51:10.051Z,12.67
2023-05-21T23:53:38.333Z,13.00
2023-05-21T23:56:07.004Z,10.73
2023-05-21T23:58:34.932Z,11.67
